Time;durP1;ratioP1;P1;durP2;ratioP2;P2;SDS_P1;SDS_P2;PMS_P1;PMS_P2;Temp;Humidity;BMP_temperature;BMP_pressure;BME280_temperature;BME280_humidity;BME280_pressure;Samples;Min_cycle;Max_cycle;Signal;HPM_P1;HPM_P2
2023/09/17 00:02:20;;;;;;;;;;;21.60;60.90;;;;;;5033482;28;87317;-53
2023/09/17 00:04:46;;;;;;;;;;;21.60;60.90;;;;;;5030270;28;88557;-57
2023/09/17 00:07:11;;;;;;;;;;;21.60;61.00;;;;;;5029535;28;88282;-48
2023/09/17 00:09:37;;;;;;;;;;;21.60;60.80;;;;;;5031876;28;87188;-49
2023/09/17 00:12:03;;;;;;;;;;;21.60;61.00;;;;;;5032218;27;87569;-55
2023/09/17 00:14:29;;;;;;;;;;;21.60;60.90;;;;;;5032077;28;89481;-57
2023/09/17 00:16:54;;;;;;;;;;;21.50;60.90;;;;;;5030909;28;87133;-54
2023/09/17 00:19:20;;;;;;;;;;;21.50;60.90;;;;;;5036345;28;89290;-55
2023/09/17 00:24:29;;;;;;;;;;;21.50;60.90;;;;;;5027672;28;86997;-52
2023/09/17 00:26:55;;;;;;;;;;;21.50;60.90;;;;;;5033541;28;88427;-50
2023/09/17 00:29:23;;;;;;;;;;;21.50;60.90;;;;;;5030127;28;88074;-47
2023/09/17 00:31:49;;;;;;;;;;;21.50;61.00;;;;;;5032386;27;88490;-52
2023/09/17 00:34:14;;;;;;;;;;;21.50;60.90;;;;;;5031715;28;88130;-49
2023/09/17 00:36:40;;;;;;;;;;;21.50;61.00;;;;;;5032084;28;88545;-56
2023/09/17 00:39:06;;;;;;;;;;;21.50;61.00;;;;;;5029420;28;90580;-54
2023/09/17 00:41:32;;;;;;;;;;;21.50;60.90;;;;;;5036109;28;87503;-54
2023/09/17 00:43:58;;;;;;;;;;;21.50;61.10;;;;;;5030436;28;87557;-55
2023/09/17 00:46:23;;;;;;;;;;;21.50;61.00;;;;;;5032975;28;88184;-55
2023/09/17 00:48:49;;;;;;;;;;;21.40;61.10;;;;;;5034771;28;87213;-53
2023/09/17 00:51:15;;;;;;;;;;;21.50;61.00;;;;;;5031860;28;87641;-55
2023/09/17 00:53:41;;;;;;;;;;;21.40;61.00;;;;;;5034422;28;89055;-53
2023/09/17 00:56:07;;;;;;;;;;;21.50;61.00;;;;;;5033833;28;87100;-51
2023/09/17 00:58:33;;;;;;;;;;;21.40;61.10;;;;;;5037082;28;87083;-51
2023/09/17 01:00:59;;;;;;;;;;;21.40;61.00;;;;;;5032714;28;88504;-54
2023/09/17 01:03:27;;;;;;;;;;;21.40;61.10;;;;;;5037870;28;87138;-51
2023/09/17 01:05:53;;;;;;;;;;;21.40;61.00;;;;;;5033060;28;87645;-53
2023/09/17 01:08:20;;;;;;;;;;;21.40;61.00;;;;;;5029485;28;87183;-48
2023/09/17 01:10:47;;;;;;;;;;;21.40;61.10;;;;;;5034093;28;88754;-48
2023/09/17 01:13:14;;;;;;;;;;;21.40;61.10;;;;;;5036418;28;88526;-54
2023/09/17 01:15:39;;;;;;;;;;;21.40;61.10;;;;;;5033314;28;87098;-54
2023/09/17 01:18:07;;;;;;;;;;;21.40;61.10;;;;;;5035185;28;87976;-54
2023/09/17 01:20:34;;;;;;;;;;;21.40;61.10;;;;;;5034662;28;88111;-52
2023/09/17 01:23:07;;;;;;;;;;;21.40;61.00;;;;;;5030266;28;87195;-54
2023/09/17 01:25:42;;;;;;;;;;;21.40;61.10;;;;;;5035707;28;87634;-51
2023/09/17 01:28:11;;;;;;;;;;;21.40;61.20;;;;;;5034761;28;87122;-50
2023/09/17 01:30:39;;;;;;;;;;;21.40;61.10;;;;;;5035745;28;89136;-54
2023/09/17 01:33:09;;;;;;;;;;;21.30;61.20;;;;;;5032408;28;88271;-58
2023/09/17 01:35:39;;;;;;;;;;;21.30;61.20;;;;;;5035560;28;86384;-52
2023/09/17 01:38:06;;;;;;;;;;;21.30;61.20;;;;;;5032989;28;88565;-54
2023/09/17 01:40:33;;;;;;;;;;;21.30;61.50;;;;;;5033116;28;88124;-49
2023/09/17 01:43:00;;;;;;;;;;;21.30;61.30;;;;;;5035704;28;88191;-51
2023/09/17 01:45:27;;;;;;;;;;;21.30;61.20;;;;;;5033366;28;88803;-49
2023/09/17 01:47:53;;;;;;;;;;;21.30;61.20;;;;;;5037496;28;87818;-57
2023/09/17 01:50:21;;;;;;;;;;;21.30;61.30;;;;;;5034705;28;87023;-49
2023/09/17 01:52:47;;;;;;;;;;;21.30;61.30;;;;;;5032726;28;88588;-48
2023/09/17 01:55:12;;;;;;;;;;;21.30;61.30;;;;;;5032720;28;87107;-47
2023/09/17 01:57:39;;;;;;;;;;;21.30;61.40;;;;;;5036162;28;87928;-54
2023/09/17 02:00:23;;;;;;;;;;;21.30;61.20;;;;;;5032457;28;87495;-53
2023/09/17 02:02:49;;;;;;;;;;;21.30;61.30;;;;;;5032312;28;87229;-49
2023/09/17 02:05:16;;;;;;;;;;;21.30;61.40;;;;;;5035558;28;88627;-51
2023/09/17 02:07:44;;;;;;;;;;;21.30;61.20;;;;;;5028602;28;88749;-51
2023/09/17 02:10:10;;;;;;;;;;;21.30;61.40;;;;;;5034370;28;87074;-54
2023/09/17 02:12:35;;;;;;;;;;;21.20;61.20;;;;;;5033227;28;88598;-52
2023/09/17 02:15:01;;;;;;;;;;;21.20;61.30;;;;;;5035169;28;87491;-50
2023/09/17 02:17:26;;;;;;;;;;;21.20;61.30;;;;;;5032286;28;87635;-54
2023/09/17 02:19:52;;;;;;;;;;;21.20;61.30;;;;;;5032039;28;88040;-52
2023/09/17 02:22:17;;;;;;;;;;;21.20;61.40;;;;;;5035246;28;87076;-51
2023/09/17 02:24:45;;;;;;;;;;;21.20;61.40;;;;;;5028761;28;88034;-53
2023/09/17 02:27:10;;;;;;;;;;;21.20;61.30;;;;;;5033464;28;89765;-54
2023/09/17 02:29:36;;;;;;;;;;;21.20;61.40;;;;;;5036108;28;87144;-49
2023/09/17 02:32:02;;;;;;;;;;;21.20;61.40;;;;;;5034208;28;89270;-52
2023/09/17 02:34:27;;;;;;;;;;;21.20;61.50;;;;;;5032214;28;87238;-53
2023/09/17 02:36:53;;;;;;;;;;;21.20;61.50;;;;;;5035475;28;87634;-53
2023/09/17 02:39:18;;;;;;;;;;;21.20;61.40;;;;;;5032575;28;87833;-47
2023/09/17 02:41:44;;;;;;;;;;;21.20;61.40;;;;;;5031584;28;87159;-49
2023/09/17 02:44:09;;;;;;;;;;;21.20;61.40;;;;;;5033536;28;88050;-55
2023/09/17 02:46:35;;;;;;;;;;;21.20;61.50;;;;;;5032890;28;88310;-49
2023/09/17 02:49:00;;;;;;;;;;;21.20;61.50;;;;;;5034919;28;86553;-53
2023/09/17 02:51:27;;;;;;;;;;;21.10;61.50;;;;;;5034787;28;87040;-51
2023/09/17 02:53:52;;;;;;;;;;;21.10;61.40;;;;;;5033039;28;87067;-48
2023/09/17 02:56:18;;;;;;;;;;;21.20;61.60;;;;;;5029963;28;88991;-48
2023/09/17 02:58:44;;;;;;;;;;;21.10;61.50;;;;;;5033407;28;89541;-51
2023/09/17 03:01:14;;;;;;;;;;;21.10;61.60;;;;;;5032689;28;87175;-51
2023/09/17 03:03:40;;;;;;;;;;;21.10;61.50;;;;;;5032222;28;87471;-54
2023/09/17 03:06:05;;;;;;;;;;;21.10;61.50;;;;;;5034241;28;89532;-56
2023/09/17 03:08:31;;;;;;;;;;;21.10;61.50;;;;;;5032683;28;87027;-53
2023/09/17 03:10:57;;;;;;;;;;;21.10;61.60;;;;;;5033283;28;87960;-49
2023/09/17 03:13:23;;;;;;;;;;;21.10;62.20;;;;;;5035345;28;87859;-53
2023/09/17 03:15:54;;;;;;;;;;;21.10;61.70;;;;;;5032741;27;87062;-50
2023/09/17 03:18:20;;;;;;;;;;;21.10;61.60;;;;;;5034238;28;88331;-54
2023/09/17 03:20:46;;;;;;;;;;;21.10;61.70;;;;;;5030783;28;88111;-51
2023/09/17 03:23:11;;;;;;;;;;;21.10;61.60;;;;;;5034768;28;88715;-51
2023/09/17 03:25:36;;;;;;;;;;;21.00;61.60;;;;;;5029314;28;88236;-51
2023/09/17 03:28:02;;;;;;;;;;;21.10;61.70;;;;;;5033605;28;87225;-53
2023/09/17 03:30:28;;;;;;;;;;;21.00;61.60;;;;;;5032709;28;88386;-54
2023/09/17 03:32:53;;;;;;;;;;;21.00;61.60;;;;;;5031859;28;90010;-51
2023/09/17 03:35:19;;;;;;;;;;;21.00;61.60;;;;;;5036846;28;87307;-50
2023/09/17 03:37:45;;;;;;;;;;;21.00;61.60;;;;;;5031573;28;87343;-54
2023/09/17 03:40:12;;;;;;;;;;;21.00;61.60;;;;;;5031532;28;87699;-51
2023/09/17 03:42:38;;;;;;;;;;;21.00;61.60;;;;;;5025071;28;87555;-53
2023/09/17 03:45:05;;;;;;;;;;;21.00;61.70;;;;;;5026453;28;90263;-50
2023/09/17 03:47:32;;;;;;;;;;;21.00;61.80;;;;;;5032897;28;87230;-53
2023/09/17 03:49:57;;;;;;;;;;;21.00;61.80;;;;;;5031491;27;89577;-51
2023/09/17 03:52:23;;;;;;;;;;;21.00;61.70;;;;;;5032080;28;91836;-52
2023/09/17 03:54:48;;;;;;;;;;;21.00;61.70;;;;;;5027547;28;87411;-50
2023/09/17 03:57:14;;;;;;;;;;;21.00;61.80;;;;;;5036560;28;87554;-53
2023/09/17 03:59:39;;;;;;;;;;;21.00;61.70;;;;;;5029489;28;87389;-52
2023/09/17 04:02:05;;;;;;;;;;;21.00;61.70;;;;;;5032244;28;87617;-49
2023/09/17 04:04:30;;;;;;;;;;;20.90;61.60;;;;;;5031856;28;88079;-51
2023/09/17 04:06:56;;;;;;;;;;;20.90;61.80;;;;;;5032895;28;87164;-53
2023/09/17 04:09:22;;;;;;;;;;;20.90;61.80;;;;;;5031407;27;88269;-54
2023/09/17 04:11:47;;;;;;;;;;;20.90;61.70;;;;;;5032860;28;88392;-52
2023/09/17 04:14:13;;;;;;;;;;;20.90;61.80;;;;;;5032721;28;87185;-52
2023/09/17 04:16:38;;;;;;;;;;;20.90;61.90;;;;;;5032640;28;88165;-51
2023/09/17 04:19:04;;;;;;;;;;;20.90;61.90;;;;;;5030549;28;87925;-57
2023/09/17 04:21:30;;;;;;;;;;;20.90;61.80;;;;;;5031825;28;87547;-53
2023/09/17 04:23:55;;;;;;;;;;;20.90;61.80;;;;;;5027288;28;90098;-53
2023/09/17 04:26:24;;;;;;;;;;;20.90;61.90;;;;;;5028699;28;87212;-54
2023/09/17 04:28:49;;;;;;;;;;;20.80;61.80;;;;;;5028962;27;88056;-54
2023/09/17 04:31:15;;;;;;;;;;;20.80;61.80;;;;;;5030945;28;87557;-53
2023/09/17 04:33:40;;;;;;;;;;;20.90;61.90;;;;;;5031006;28;88451;-50
2023/09/17 04:36:06;;;;;;;;;;;20.80;61.80;;;;;;5033045;28;88609;-51
2023/09/17 04:38:31;;;;;;;;;;;20.80;61.80;;;;;;5034189;28;90469;-52
2023/09/17 04:40:57;;;;;;;;;;;20.80;61.70;;;;;;5033648;28;88982;-50
2023/09/17 04:43:23;;;;;;;;;;;20.80;61.80;;;;;;5030711;28;88244;-52
2023/09/17 04:45:49;;;;;;;;;;;20.80;61.80;;;;;;5026500;28;87290;-53
2023/09/17 04:48:16;;;;;;;;;;;20.80;61.70;;;;;;5033425;28;87083;-55
2023/09/17 04:50:43;;;;;;;;;;;20.80;61.80;;;;;;5032164;28;87860;-51
2023/09/17 04:53:10;;;;;;;;;;;20.80;61.80;;;;;;5027621;28;87402;-54
2023/09/17 04:55:36;;;;;;;;;;;20.80;61.80;;;;;;5029296;28;89072;-52
2023/09/17 04:58:01;;;;;;;;;;;20.80;61.80;;;;;;5031865;28;89309;-53
2023/09/17 05:00:27;;;;;;;;;;;20.80;61.80;;;;;;5033594;28;87222;-55
2023/09/17 05:02:52;;;;;;;;;;;20.80;61.70;;;;;;5027853;28;88086;-52
2023/09/17 05:05:19;;;;;;;;;;;20.80;61.80;;;;;;5029833;28;87190;-53
2023/09/17 05:07:46;;;;;;;;;;;20.80;61.80;;;;;;5032251;27;88882;-57
2023/09/17 05:10:12;;;;;;;;;;;20.80;61.80;;;;;;5025070;28;88093;-51
2023/09/17 05:12:38;;;;;;;;;;;20.80;61.70;;;;;;5028270;28;88015;-51
2023/09/17 05:15:04;;;;;;;;;;;20.80;61.70;;;;;;5031470;28;86717;-57
2023/09/17 05:17:29;;;;;;;;;;;20.80;61.70;;;;;;5031473;27;88375;-52
2023/09/17 05:19:55;;;;;;;;;;;20.80;61.80;;;;;;5028279;28;87186;-56
2023/09/17 05:22:20;;;;;;;;;;;20.80;61.80;;;;;;5026721;28;88580;-55
2023/09/17 05:24:46;;;;;;;;;;;20.80;61.80;;;;;;5031173;28;87054;-50
2023/09/17 05:27:11;;;;;;;;;;;20.80;61.80;;;;;;5032257;28;88096;-56
2023/09/17 05:29:37;;;;;;;;;;;20.70;61.80;;;;;;5030536;28;88315;-52
2023/09/17 05:32:03;;;;;;;;;;;20.80;61.70;;;;;;5028468;28;87238;-50
2023/09/17 05:34:29;;;;;;;;;;;20.70;61.80;;;;;;5030913;27;87918;-53
2023/09/17 05:36:54;;;;;;;;;;;20.80;61.80;;;;;;5034827;28;88216;-57
2023/09/17 05:39:20;;;;;;;;;;;20.70;61.80;;;;;;5029289;28;87546;-51
2023/09/17 05:41:45;;;;;;;;;;;20.70;61.90;;;;;;5034461;28;87038;-53
2023/09/17 05:44:11;;;;;;;;;;;20.70;62.00;;;;;;5036970;28;89476;-51
2023/09/17 05:46:36;;;;;;;;;;;20.70;61.90;;;;;;5031627;28;89123;-51
2023/09/17 05:49:01;;;;;;;;;;;20.70;61.80;;;;;;5035048;28;88510;-50
2023/09/17 05:51:27;;;;;;;;;;;20.70;61.80;;;;;;5039072;28;87605;-52
2023/09/17 05:53:52;;;;;;;;;;;20.70;61.70;;;;;;5034552;28;87670;-50
2023/09/17 05:56:18;;;;;;;;;;;20.70;61.80;;;;;;5027261;28;89643;-49
2023/09/17 05:58:43;;;;;;;;;;;20.70;61.70;;;;;;5030177;28;87217;-50
2023/09/17 06:01:09;;;;;;;;;;;20.70;61.70;;;;;;5031349;28;87619;-50
2023/09/17 06:03:34;;;;;;;;;;;20.70;61.70;;;;;;5033698;28;87503;-53
2023/09/17 06:06:00;;;;;;;;;;;20.70;61.70;;;;;;5034065;28;87719;-53
2023/09/17 06:08:28;;;;;;;;;;;20.80;61.70;;;;;;5031948;28;89799;-53
2023/09/17 06:10:54;;;;;;;;;;;20.70;62.40;;;;;;5031696;28;88167;-52
2023/09/17 06:13:19;;;;;;;;;;;20.70;61.70;;;;;;5036964;28;88799;-52
2023/09/17 06:15:45;;;;;;;;;;;20.70;61.70;;;;;;5030291;28;88526;-53
2023/09/17 06:18:11;;;;;;;;;;;20.70;61.70;;;;;;5031639;28;87201;-54
2023/09/17 06:20:37;;;;;;;;;;;20.70;61.80;;;;;;5033911;28;87832;-52
2023/09/17 06:23:02;;;;;;;;;;;20.80;61.70;;;;;;5032373;28;88639;-52
2023/09/17 06:25:28;;;;;;;;;;;20.70;61.60;;;;;;5037104;28;87131;-56
2023/09/17 06:27:54;;;;;;;;;;;20.80;61.70;;;;;;5030008;28;90895;-48
2023/09/17 06:30:20;;;;;;;;;;;20.80;61.60;;;;;;5032137;28;87325;-52
2023/09/17 06:32:45;;;;;;;;;;;20.70;61.80;;;;;;5030504;28;88861;-50
2023/09/17 06:35:11;;;;;;;;;;;20.70;61.70;;;;;;5030296;28;88447;-54
2023/09/17 06:37:36;;;;;;;;;;;20.70;61.70;;;;;;5031150;28;87104;-55
2023/09/17 06:40:02;;;;;;;;;;;20.70;61.80;;;;;;5033875;28;87903;-55
2023/09/17 06:42:28;;;;;;;;;;;20.70;61.80;;;;;;5027392;28;88182;-49
2023/09/17 06:44:53;;;;;;;;;;;20.70;61.90;;;;;;5025920;28;87242;-49
2023/09/17 06:47:19;;;;;;;;;;;20.70;61.80;;;;;;5034779;28;87497;-53
2023/09/17 06:49:44;;;;;;;;;;;20.70;61.70;;;;;;5031903;28;87243;-51
2023/09/17 06:52:10;;;;;;;;;;;20.70;61.60;;;;;;5030473;28;87765;-48
2023/09/17 06:54:35;;;;;;;;;;;20.70;61.70;;;;;;5028651;28;88325;-50
2023/09/17 06:57:01;;;;;;;;;;;20.70;61.80;;;;;;5032847;28;88966;-51
2023/09/17 06:59:27;;;;;;;;;;;20.70;61.80;;;;;;5031073;28;88179;-54
2023/09/17 07:01:53;;;;;;;;;;;20.70;62.00;;;;;;5030132;28;88224;-46
2023/09/17 07:04:19;;;;;;;;;;;20.70;62.00;;;;;;5028085;28;87220;-50
2023/09/17 07:06:44;;;;;;;;;;;20.70;62.00;;;;;;5034479;28;87468;-55
2023/09/17 07:09:10;;;;;;;;;;;20.70;62.00;;;;;;5033990;28;88733;-51
2023/09/17 07:11:36;;;;;;;;;;;20.70;61.90;;;;;;5024957;28;87563;-53
2023/09/17 07:14:08;;;;;;;;;;;20.70;62.00;;;;;;5030661;28;90099;-51
2023/09/17 07:16:35;;;;;;;;;;;20.70;61.90;;;;;;5032229;28;86338;-53
2023/09/17 07:19:00;;;;;;;;;;;20.70;62.00;;;;;;5027876;28;87581;-52
2023/09/17 07:21:26;;;;;;;;;;;20.70;61.80;;;;;;5028605;28;88575;-52
2023/09/17 07:23:52;;;;;;;;;;;20.70;61.80;;;;;;5032218;28;88065;-54
2023/09/17 07:26:20;;;;;;;;;;;20.70;61.80;;;;;;5034781;28;87149;-53
2023/09/17 07:28:45;;;;;;;;;;;20.70;61.80;;;;;;5029514;28;88008;-48
2023/09/17 07:31:12;;;;;;;;;;;20.70;61.60;;;;;;5031584;28;87292;-51
2023/09/17 07:33:39;;;;;;;;;;;20.80;61.80;;;;;;5033757;28;88725;-49
2023/09/17 07:36:05;;;;;;;;;;;20.80;61.70;;;;;;5034636;28;87184;-55
2023/09/17 07:38:31;;;;;;;;;;;20.80;61.70;;;;;;5028410;28;87729;-54
2023/09/17 07:40:56;;;;;;;;;;;20.80;61.70;;;;;;5028414;28;87562;-53
2023/09/17 07:43:22;;;;;;;;;;;20.80;61.70;;;;;;5033539;28;87038;-53
2023/09/17 07:45:47;;;;;;;;;;;20.80;61.80;;;;;;5032041;27;88777;-52
2023/09/17 07:48:13;;;;;;;;;;;20.80;61.80;;;;;;5025880;28;89689;-54
2023/09/17 07:50:40;;;;;;;;;;;20.80;61.90;;;;;;5030483;28;87173;-47
2023/09/17 07:53:06;;;;;;;;;;;20.80;62.10;;;;;;5032995;28;90646;-52
2023/09/17 07:55:31;;;;;;;;;;;20.80;62.10;;;;;;5030449;28;87260;-52
2023/09/17 07:57:57;;;;;;;;;;;20.70;61.80;;;;;;5027220;28;87457;-54
2023/09/17 08:00:22;;;;;;;;;;;20.80;62.00;;;;;;5033051;28;88590;-49
2023/09/17 08:02:48;;;;;;;;;;;20.80;61.80;;;;;;5029365;28;87097;-53
2023/09/17 08:05:14;;;;;;;;;;;20.80;62.00;;;;;;5031403;28;89614;-50
2023/09/17 08:07:40;;;;;;;;;;;20.80;62.10;;;;;;5031265;28;89407;-50
2023/09/17 08:10:09;;;;;;;;;;;20.80;61.90;;;;;;5032797;28;86998;-48
2023/09/17 08:12:35;;;;;;;;;;;20.80;62.00;;;;;;5030519;28;88147;-50
2023/09/17 08:15:01;;;;;;;;;;;20.80;62.30;;;;;;5029261;28;89768;-45
2023/09/17 08:17:26;;;;;;;;;;;20.80;63.00;;;;;;5029282;28;88708;-49
2023/09/17 08:19:52;;;;;;;;;;;20.80;62.30;;;;;;5033534;28;89593;-54
2023/09/17 08:22:18;;;;;;;;;;;20.80;62.40;;;;;;5034141;28;87188;-52
2023/09/17 08:24:43;;;;;;;;;;;20.80;62.60;;;;;;5026313;28;88974;-45
2023/09/17 08:27:09;;;;;;;;;;;20.80;62.40;;;;;;5031427;28;88128;-55
2023/09/17 08:29:35;;;;;;;;;;;20.80;62.50;;;;;;5034011;28;86284;-53
2023/09/17 08:32:00;;;;;;;;;;;20.80;62.30;;;;;;5027321;27;88049;-49
2023/09/17 08:34:26;;;;;;;;;;;20.80;62.30;;;;;;5030360;28;88244;-49
2023/09/17 08:36:51;;;;;;;;;;;20.80;62.50;;;;;;5033162;28;88025;-51
2023/09/17 08:39:17;;;;;;;;;;;20.80;62.60;;;;;;5028672;28;88228;-48
2023/09/17 08:41:42;;;;;;;;;;;20.70;62.50;;;;;;5026328;28;87240;-54
2023/09/17 08:44:08;;;;;;;;;;;20.80;62.60;;;;;;5030837;28;87340;-48
2023/09/17 08:46:35;;;;;;;;;;;20.80;62.50;;;;;;5028584;28;88601;-51
2023/09/17 08:49:03;;;;;;;;;;;20.80;62.60;;;;;;5030602;28;87188;-50
2023/09/17 08:51:32;;;;;;;;;;;20.70;62.40;;;;;;5029376;28;88915;-53
2023/09/17 08:53:57;;;;;;;;;;;20.80;62.50;;;;;;5030350;28;87921;-55
2023/09/17 08:56:23;;;;;;;;;;;20.80;62.50;;;;;;5036393;28;87142;-55
2023/09/17 08:58:52;;;;;;;;;;;20.80;62.60;;;;;;5026729;28;88014;-51
2023/09/17 09:01:20;;;;;;;;;;;20.80;62.50;;;;;;5026275;28;89534;-57
2023/09/17 09:03:46;;;;;;;;;;;20.80;62.50;;;;;;5028932;28;90620;-57
2023/09/17 09:06:14;;;;;;;;;;;20.80;63.20;;;;;;5029096;28;88238;-53
2023/09/17 09:08:42;;;;;;;;;;;20.80;62.50;;;;;;5027582;28;87076;-56
2023/09/17 09:11:08;;;;;;;;;;;20.80;62.40;;;;;;5031721;28;87862;-53
2023/09/17 09:13:33;;;;;;;;;;;20.80;62.50;;;;;;5035372;28;88476;-52
2023/09/17 09:16:00;;;;;;;;;;;20.80;62.50;;;;;;5035818;28;87138;-55
2023/09/17 09:18:26;;;;;;;;;;;20.80;62.60;;;;;;5033039;28;89230;-52
2023/09/17 09:20:51;;;;;;;;;;;20.80;62.50;;;;;;5031407;28;88429;-53
2023/09/17 09:23:17;;;;;;;;;;;20.80;62.50;;;;;;5033861;28;87571;-50
2023/09/17 09:25:42;;;;;;;;;;;20.90;62.40;;;;;;5033165;28;89315;-50
2023/09/17 09:28:08;;;;;;;;;;;20.90;62.50;;;;;;5033509;28;88833;-50
2023/09/17 09:30:35;;;;;;;;;;;20.90;62.50;;;;;;5032865;28;89359;-53
2023/09/17 09:33:01;;;;;;;;;;;20.90;62.50;;;;;;5032029;28;88461;-52
2023/09/17 09:35:26;;;;;;;;;;;20.90;62.30;;;;;;5032982;28;88272;-52
2023/09/17 09:37:53;;;;;;;;;;;20.90;62.50;;;;;;5030221;28;87635;-54
2023/09/17 09:40:19;;;;;;;;;;;20.90;62.40;;;;;;5037541;28;89343;-50
2023/09/17 09:42:46;;;;;;;;;;;20.90;62.20;;;;;;5036177;28;87315;-54
2023/09/17 09:45:15;;;;;;;;;;;20.90;62.30;;;;;;5029260;28;89492;-52
2023/09/17 09:47:45;;;;;;;;;;;20.90;62.40;;;;;;5031714;28;87203;-51
2023/09/17 09:50:20;;;;;;;;;;;20.90;62.40;;;;;;5032431;28;89383;-52
2023/09/17 09:52:48;;;;;;;;;;;20.90;62.20;;;;;;5035701;28;88875;-52
2023/09/17 09:55:13;;;;;;;;;;;20.90;62.30;;;;;;5033088;28;87538;-51
2023/09/17 09:57:39;;;;;;;;;;;20.90;62.70;;;;;;5033599;28;88309;-49
2023/09/17 10:00:14;;;;;;;;;;;21.00;62.50;;;;;;5032544;28;88102;-54
2023/09/17 10:02:40;;;;;;;;;;;20.90;62.50;;;;;;5032464;28;88131;-51
2023/09/17 10:05:18;;;;;;;;;;;21.00;62.40;;;;;;5028371;28;89821;-54
2023/09/17 10:07:47;;;;;;;;;;;20.90;62.20;;;;;;5028956;28;86385;-54
2023/09/17 10:10:13;;;;;;;;;;;21.00;62.60;;;;;;5028057;28;88373;-56
2023/09/17 10:12:38;;;;;;;;;;;21.00;62.60;;;;;;5032371;28;88291;-51
2023/09/17 10:15:04;;;;;;;;;;;21.00;62.60;;;;;;5027092;28;89294;-55
2023/09/17 10:17:33;;;;;;;;;;;21.00;62.40;;;;;;5032219;28;90073;-53
2023/09/17 10:19:59;;;;;;;;;;;21.00;62.50;;;;;;5032761;28;88618;-51
2023/09/17 10:22:26;;;;;;;;;;;21.00;62.60;;;;;;5030790;28;87147;-54
2023/09/17 10:24:52;;;;;;;;;;;21.00;62.60;;;;;;5034562;28;88422;-51
2023/09/17 10:27:19;;;;;;;;;;;21.10;62.50;;;;;;5033114;28;87300;-52
2023/09/17 10:29:49;;;;;;;;;;;21.10;62.80;;;;;;5032801;28;87068;-48
2023/09/17 10:32:15;;;;;;;;;;;21.00;62.60;;;;;;5027221;28;87403;-56
2023/09/17 10:34:41;;;;;;;;;;;21.10;62.90;;;;;;5030254;28;87135;-55
2023/09/17 10:37:07;;;;;;;;;;;21.10;62.90;;;;;;5031652;28;87611;-56
2023/09/17 10:39:35;;;;;;;;;;;21.10;62.80;;;;;;5032367;28;90255;-55
2023/09/17 10:42:04;;;;;;;;;;;21.10;62.70;;;;;;5027530;28;88434;-50
2023/09/17 10:44:33;;;;;;;;;;;21.10;62.70;;;;;;5034451;28;87542;-50
2023/09/17 10:47:00;;;;;;;;;;;21.10;62.90;;;;;;5034602;28;87109;-47
2023/09/17 10:49:26;;;;;;;;;;;21.10;62.50;;;;;;5030369;28;88086;-49
2023/09/17 10:51:53;;;;;;;;;;;21.10;62.50;;;;;;5027363;28;88847;-53
2023/09/17 10:54:18;;;;;;;;;;;21.20;62.70;;;;;;5034758;28;87309;-51
2023/09/17 10:56:45;;;;;;;;;;;21.10;62.50;;;;;;5031453;27;87728;-49
2023/09/17 10:59:13;;;;;;;;;;;21.20;62.60;;;;;;5026077;28;89397;-51
2023/09/17 11:01:41;;;;;;;;;;;21.20;62.90;;;;;;5029581;28;87199;-48
2023/09/17 11:04:13;;;;;;;;;;;21.20;63.10;;;;;;5032991;28;89252;-51
2023/09/17 11:06:39;;;;;;;;;;;21.20;62.90;;;;;;5035724;28;89771;-51
2023/09/17 11:09:05;;;;;;;;;;;21.20;62.90;;;;;;5030943;28;87742;-52
2023/09/17 11:11:32;;;;;;;;;;;21.20;63.00;;;;;;5030808;28;87789;-52
2023/09/17 11:13:57;;;;;;;;;;;21.30;62.90;;;;;;5033031;28;87074;-57
2023/09/17 11:16:24;;;;;;;;;;;21.20;63.40;;;;;;5031329;28;87694;-51
2023/09/17 11:19:07;;;;;;;;;;;21.20;63.20;;;;;;5030480;27;88252;-50
2023/09/17 11:21:34;;;;;;;;;;;21.20;65.40;;;;;;5029304;28;86586;-48
2023/09/17 11:24:04;;;;;;;;;;;21.20;67.20;;;;;;5026942;28;87230;-53
2023/09/17 11:26:31;;;;;;;;;;;21.30;67.80;;;;;;5030549;28;88132;-48
2023/09/17 11:28:58;;;;;;;;;;;21.30;68.00;;;;;;5032580;28;88156;-48
2023/09/17 11:31:27;;;;;;;;;;;21.30;67.80;;;;;;5031100;27;88151;-48
2023/09/17 11:33:52;;;;;;;;;;;21.20;67.50;;;;;;5029648;28;88469;-52
2023/09/17 11:36:18;;;;;;;;;;;21.20;67.00;;;;;;5028433;28;89196;-51
2023/09/17 11:38:44;;;;;;;;;;;21.20;66.50;;;;;;5028460;28;88194;-55
2023/09/17 11:41:11;;;;;;;;;;;21.30;66.50;;;;;;5030180;28;87591;-46
2023/09/17 11:43:37;;;;;;;;;;;21.40;67.10;;;;;;5031896;28;88047;-53
2023/09/17 11:46:04;;;;;;;;;;;21.30;66.80;;;;;;5030527;28;87712;-52
2023/09/17 11:48:31;;;;;;;;;;;21.30;66.80;;;;;;5028106;28;87192;-49
2023/09/17 11:51:15;;;;;;;;;;;21.40;67.40;;;;;;5032370;28;89329;-51
2023/09/17 11:53:49;;;;;;;;;;;21.40;67.90;;;;;;5029550;28;90299;-46
2023/09/17 11:56:15;;;;;;;;;;;21.50;67.90;;;;;;5026861;28;88772;-49
2023/09/17 11:58:42;;;;;;;;;;;21.50;67.40;;;;;;5033644;28;88668;-57
2023/09/17 12:01:07;;;;;;;;;;;21.50;66.80;;;;;;5032897;28;87147;-53
2023/09/17 12:03:33;;;;;;;;;;;21.50;66.60;;;;;;5028864;28;87680;-55
2023/09/17 12:05:59;;;;;;;;;;;21.60;66.00;;;;;;5030537;28;88160;-47
2023/09/17 12:08:24;;;;;;;;;;;21.70;65.50;;;;;;5033183;28;87032;-51
2023/09/17 12:11:00;;;;;;;;;;;21.70;65.10;;;;;;5032005;27;87344;-52
2023/09/17 12:13:29;;;;;;;;;;;21.80;65.00;;;;;;5033142;28;88202;-50
2023/09/17 12:15:55;;;;;;;;;;;21.80;65.00;;;;;;5029173;28;87821;-51
2023/09/17 12:18:21;;;;;;;;;;;21.70;64.50;;;;;;5029922;28;90333;-51
2023/09/17 12:20:59;;;;;;;;;;;21.80;64.60;;;;;;5030536;28;87466;-51
2023/09/17 12:23:40;;;;;;;;;;;21.70;64.80;;;;;;5023804;28;88575;-49
2023/09/17 12:26:05;;;;;;;;;;;21.70;65.10;;;;;;5030509;28;88342;-51
2023/09/17 12:28:31;;;;;;;;;;;21.70;64.50;;;;;;5031053;28;87212;-53
2023/09/17 12:30:57;;;;;;;;;;;21.70;64.50;;;;;;5030651;28;88950;-48
2023/09/17 12:33:23;;;;;;;;;;;21.70;64.50;;;;;;5028191;28;87023;-49
2023/09/17 12:35:48;;;;;;;;;;;21.70;64.30;;;;;;5036123;28;86894;-52
2023/09/17 12:38:14;;;;;;;;;;;21.80;64.50;;;;;;5030818;28;88433;-50
2023/09/17 12:40:42;;;;;;;;;;;21.70;64.30;;;;;;5027695;28;87184;-53
2023/09/17 12:43:08;;;;;;;;;;;21.70;64.60;;;;;;5031967;28;88550;-48
2023/09/17 12:45:34;;;;;;;;;;;21.70;64.40;;;;;;5034714;28;88553;-50
2023/09/17 12:48:00;;;;;;;;;;;21.70;64.50;;;;;;5037002;28;87060;-53
2023/09/17 12:50:29;;;;;;;;;;;21.70;64.30;;;;;;5028576;28;87846;-50
2023/09/17 12:52:55;;;;;;;;;;;21.60;64.70;;;;;;5033414;28;88335;-49
2023/09/17 12:55:20;;;;;;;;;;;21.70;64.90;;;;;;5037503;28;87370;-49
2023/09/17 12:57:49;;;;;;;;;;;21.60;64.50;;;;;;5034874;28;89278;-47
2023/09/17 13:00:14;;;;;;;;;;;21.70;64.70;;;;;;5031619;28;86490;-51
2023/09/17 13:02:40;;;;;;;;;;;21.60;64.50;;;;;;5034892;28;86996;-49
2023/09/17 13:05:07;;;;;;;;;;;21.70;64.50;;;;;;5037206;28;89633;-51
2023/09/17 13:07:35;;;;;;;;;;;21.60;64.50;;;;;;5033434;28;88179;-48
2023/09/17 13:10:00;;;;;;;;;;;21.60;64.40;;;;;;5034741;28;88530;-53
2023/09/17 13:12:27;;;;;;;;;;;21.60;64.30;;;;;;5035378;28;89105;-48
2023/09/17 13:14:53;;;;;;;;;;;21.60;64.50;;;;;;5032073;28;87179;-49
2023/09/17 13:17:19;;;;;;;;;;;21.60;64.40;;;;;;5032982;28;87402;-49
2023/09/17 13:19:45;;;;;;;;;;;21.60;64.40;;;;;;5028198;28;87130;-50
2023/09/17 13:22:12;;;;;;;;;;;21.60;64.40;;;;;;5035798;28;87502;-48
2023/09/17 13:24:39;;;;;;;;;;;21.60;64.40;;;;;;5028830;28;87027;-52
2023/09/17 13:27:06;;;;;;;;;;;21.60;64.20;;;;;;5032083;28;88571;-49
2023/09/17 13:29:34;;;;;;;;;;;21.60;64.20;;;;;;5034437;28;87886;-48
2023/09/17 13:32:00;;;;;;;;;;;21.60;64.40;;;;;;5034693;28;90669;-50
2023/09/17 13:34:27;;;;;;;;;;;21.60;64.30;;;;;;5032595;28;87430;-50
2023/09/17 13:36:53;;;;;;;;;;;21.60;64.20;;;;;;5029119;28;89448;-51
2023/09/17 13:39:18;;;;;;;;;;;21.60;64.20;;;;;;5038624;28;89613;-53
2023/09/17 13:41:44;;;;;;;;;;;21.60;64.10;;;;;;5032403;28;87634;-50
2023/09/17 13:44:09;;;;;;;;;;;21.60;64.10;;;;;;5030580;28;88610;-46
2023/09/17 13:46:35;;;;;;;;;;;21.60;64.00;;;;;;5029901;27;88419;-51
2023/09/17 13:49:00;;;;;;;;;;;21.60;63.70;;;;;;5032932;28;87587;-53
2023/09/17 13:51:26;;;;;;;;;;;21.60;63.70;;;;;;5034172;28;88731;-53
2023/09/17 13:53:51;;;;;;;;;;;21.70;63.70;;;;;;5029922;27;87184;-49
2023/09/17 13:56:17;;;;;;;;;;;21.70;63.90;;;;;;5032520;28;90511;-47
2023/09/17 13:58:42;;;;;;;;;;;21.70;63.90;;;;;;5035493;28;87427;-55
2023/09/17 14:01:08;;;;;;;;;;;21.60;63.90;;;;;;5035618;28;87266;-53
2023/09/17 14:03:34;;;;;;;;;;;21.70;63.80;;;;;;5032315;28;87774;-55
2023/09/17 14:05:59;;;;;;;;;;;21.60;63.70;;;;;;5031670;28;87075;-52
2023/09/17 14:08:25;;;;;;;;;;;21.70;63.70;;;;;;5031412;28;87951;-53
2023/09/17 14:10:50;;;;;;;;;;;21.70;63.60;;;;;;5032842;28;87291;-53
2023/09/17 14:13:16;;;;;;;;;;;21.70;63.70;;;;;;5030757;28;86716;-57
2023/09/17 14:15:41;;;;;;;;;;;21.70;63.60;;;;;;5032841;28;87915;-52